Hovedside
METAR-TAF:

METAR-TAF

Lufthavner :

Kaltag, Alaska, USA

breddegrad: 64-19N, lengdegrad: 158-44W, høyde over havet: 54 m

Gjeldene værobservasjon

Denne rapporten ble laget for 33 minutter siden, klokken 17:07 UTC
Vind 3 kt fra Øst-nordøst
Temperatur -6°C
Luftfuktighet 93%
Trykk 1005 hPa
Sikt: 2.8 km
Overskyet i en høyde av 800 ft
lett snø, dis

METAR: PAKV 231707Z AUTO 06003KT 1 3/4SM -SN BR OVC008 M06/M07 A2969 RMK AO2 SNB1654 P0001 T10561067 TSNO $

Tid: 08:40 (17:40 UTC)


TAF: fraværende

Værobservasjoner og værvarsel for over 4000 flyplasser (METAR- og TAF-rapporter).

Tilgjengelige stasjoner er representert av de røde og gule prikkene på kartet.

Hold musepekeren over prikken for å se navnet på stasjonen.

Klikk så for å se værobservasjoner og -varsler.

For å forandre kartet kan du klikke på den grønne knappen med svart kryss for å zoome inn, på den grønne knappen med strek for å zoome ut, eller på de grønne pilene for å se tilstøtende kart.


METAR-TAF: